createdAt,value
2023-01-29T00:01:04.589Z,102093.31
2023-01-29T00:06:09.764Z,102096.03
2023-01-29T00:11:14.604Z,102084.44
2023-01-29T00:16:17.985Z,102073.75
2023-01-29T00:21:23.002Z,102081.91
2023-01-29T00:26:28.428Z,102079.19
2023-01-29T00:31:34.957Z,102075.28
2023-01-29T00:36:38.291Z,102058.25
2023-01-29T00:42:00.336Z,102062.28
2023-01-29T00:47:04.607Z,102070.28
2023-01-29T00:52:26.282Z,102075.91
2023-01-29T00:57:32.478Z,102070.56
2023-01-29T01:02:53.596Z,102066.28
2023-01-29T01:07:58.342Z,102075.28
2023-01-29T01:13:04.684Z,102060.03
2023-01-29T01:18:08.517Z,102052.16
2023-01-29T01:23:12.168Z,102046.97
2023-01-29T01:28:17.041Z,102055.50
2023-01-29T01:33:20.481Z,102032.28
2023-01-29T01:38:23.857Z,102018.13
2023-01-29T01:43:50.972Z,102019.19
2023-01-29T01:48:57.315Z,102017.34
2023-01-29T01:54:03.851Z,102009.34
2023-01-29T01:59:10.963Z,102012.88
2023-01-29T02:04:37.248Z,102016.78
2023-01-29T02:09:43.456Z,102024.41
2023-01-29T02:14:48.383Z,102031.78
2023-01-29T02:19:58.321Z,102029.63
2023-01-29T02:25:09.649Z,102032.31
2023-01-29T02:30:19.150Z,102044.06
2023-01-29T02:35:29.184Z,102048.78
2023-01-29T02:40:36.964Z,102056.63
2023-01-29T02:45:47.090Z,102064.84
2023-01-29T02:50:55.246Z,102066.78
2023-01-29T02:56:01.239Z,102074.63
2023-01-29T03:01:09.468Z,102061.06
2023-01-29T03:06:18.213Z,102062.28
2023-01-29T03:11:22.458Z,102043.19
2023-01-29T03:16:33.024Z,102035.06
2023-01-29T03:21:55.256Z,102021.47
2023-01-29T03:27:17.842Z,102022.22
2023-01-29T03:32:26.531Z,102024.50
2023-01-29T03:37:34.840Z,102014.63
2023-01-29T03:42:52.111Z,102013.34
2023-01-29T03:48:01.981Z,102012.34
2023-01-29T03:53:10.415Z,101995.00
2023-01-29T03:58:22.295Z,101995.09
2023-01-29T04:03:33.148Z,101989.59
2023-01-29T04:08:46.949Z,101982.75
2023-01-29T04:13:51.106Z,101981.91
2023-01-29T04:18:57.145Z,101969.13
2023-01-29T04:24:08.617Z,101968.38
2023-01-29T04:29:22.962Z,101950.31
2023-01-29T04:34:35.548Z,101931.97
2023-01-29T04:39:45.910Z,101931.81
2023-01-29T04:44:52.014Z,101919.88
2023-01-29T04:50:04.254Z,101907.38
2023-01-29T04:55:11.601Z,101926.56
2023-01-29T05:00:19.460Z,101917.94
2023-01-29T05:05:24.283Z,101911.63
2023-01-29T05:10:28.182Z,101912.78
2023-01-29T05:15:44.109Z,101915.63
2023-01-29T05:20:49.288Z,101918.13
2023-01-29T05:25:52.852Z,101912.78
2023-01-29T05:30:57.521Z,101912.00
2023-01-29T05:36:02.354Z,101921.28
2023-01-29T05:41:05.988Z,101927.34
2023-01-29T05:46:09.428Z,101924.56
2023-01-29T05:51:14.118Z,101925.66
2023-01-29T05:56:17.681Z,101924.75
2023-01-29T06:01:23.384Z,101931.22
2023-01-29T06:06:28.324Z,101948.00
2023-01-29T06:11:31.783Z,101953.06
2023-01-29T06:16:35.280Z,101959.72
2023-01-29T06:21:40.015Z,101942.09
2023-01-29T06:26:43.386Z,101919.28
2023-01-29T06:31:46.881Z,101936.38
2023-01-29T06:36:51.756Z,101943.38
2023-01-29T06:41:55.231Z,101929.56
2023-01-29T06:46:58.957Z,101939.00
2023-01-29T06:52:03.653Z,101937.69
2023-01-29T06:57:07.075Z,101922.53
2023-01-29T07:02:10.527Z,101954.66
2023-01-29T07:07:15.335Z,101963.78
2023-01-29T07:12:18.699Z,101962.94
2023-01-29T07:17:22.081Z,101972.97
2023-01-29T07:22:26.843Z,101966.34
2023-01-29T07:27:30.231Z,101971.97
2023-01-29T07:32:33.637Z,101964.72
2023-01-29T07:37:38.442Z,101940.19
2023-01-29T07:42:44.010Z,101929.78
2023-01-29T07:47:53.206Z,101943.00
2023-01-29T07:52:58.065Z,101928.06
2023-01-29T07:58:22.056Z,101910.53
2023-01-29T08:03:25.421Z,101896.50
2023-01-29T08:08:30.266Z,101898.09
2023-01-29T08:13:33.998Z,101911.81
2023-01-29T08:18:38.016Z,101911.31
2023-01-29T08:23:42.762Z,101907.25
2023-01-29T08:28:46.126Z,101898.56
2023-01-29T08:33:49.889Z,101902.94
2023-01-29T08:38:57.458Z,101909.13
2023-01-29T08:44:02.315Z,101914.19
2023-01-29T08:49:05.665Z,101912.94
2023-01-29T08:54:10.374Z,101897.31
2023-01-29T08:59:14.323Z,101895.75
2023-01-29T09:04:17.755Z,101899.69
2023-01-29T09:09:22.544Z,101883.16
2023-01-29T09:14:27.559Z,101879.31
2023-01-29T09:19:30.906Z,101872.38
2023-01-29T09:24:35.854Z,101854.38
2023-01-29T09:29:39.226Z,101842.06
2023-01-29T09:34:42.642Z,101834.69
2023-01-29T09:39:47.846Z,101846.66
2023-01-29T09:44:56.627Z,101844.56
2023-01-29T09:50:02.606Z,101846.19
2023-01-29T09:55:13.662Z,101838.56
2023-01-29T10:00:21.517Z,101835.00
2023-01-29T10:05:33.818Z,101827.84
2023-01-29T10:10:49.045Z,101817.69
2023-01-29T10:16:04.247Z,101818.66
2023-01-29T10:21:18.556Z,101820.94
2023-01-29T10:26:25.850Z,101811.44
2023-01-29T10:31:32.668Z,101825.97
2023-01-29T10:36:38.210Z,101837.00
2023-01-29T10:41:54.227Z,101831.41
2023-01-29T10:47:19.059Z,101810.81
2023-01-29T10:52:36.512Z,101796.16
2023-01-29T10:57:53.800Z,101798.34
2023-01-29T11:02:57.261Z,101781.19
2023-01-29T11:08:05.150Z,101774.59
2023-01-29T11:13:15.202Z,101758.84
2023-01-29T11:18:18.704Z,101753.28
2023-01-29T11:23:27.121Z,101753.25
2023-01-29T11:28:39.176Z,101751.66
2023-01-29T11:33:42.660Z,101730.34
2023-01-29T11:38:46.008Z,101729.50
2023-01-29T11:43:50.739Z,101714.13
2023-01-29T11:48:59.402Z,101702.31
2023-01-29T11:54:16.225Z,101703.38
2023-01-29T11:59:30.657Z,101690.47
2023-01-29T12:04:34.045Z,101678.66
2023-01-29T12:09:39.334Z,101659.25
2023-01-29T12:14:45.150Z,101661.09
2023-01-29T12:19:52.095Z,101670.75
2023-01-29T12:24:58.605Z,101653.25
2023-01-29T12:30:07.167Z,101659.19
2023-01-29T12:35:16.727Z,101659.69
2023-01-29T12:40:20.703Z,101643.47
2023-01-29T12:45:28.154Z,101637.97
2023-01-29T12:50:34.747Z,101636.88
2023-01-29T12:55:40.618Z,101626.72
2023-01-29T13:00:47.930Z,101623.63
2023-01-29T13:05:53.060Z,101621.13
2023-01-29T13:11:01.491Z,101614.31
2023-01-29T13:16:08.775Z,101621.78
2023-01-29T13:21:14.930Z,101610.16
2023-01-29T13:26:19.733Z,101588.56
2023-01-29T13:31:31.462Z,101579.47
2023-01-29T13:36:35.838Z,101572.41
2023-01-29T13:41:42.403Z,101572.44
2023-01-29T13:46:52.683Z,101567.69
2023-01-29T13:51:56.207Z,101570.78
2023-01-29T13:57:02.051Z,101552.06
2023-01-29T14:02:21.676Z,101544.06
2023-01-29T14:07:50.844Z,101528.81
2023-01-29T14:12:55.507Z,101524.16
2023-01-29T14:18:07.285Z,101526.31
2023-01-29T14:23:29.567Z,101531.41
2023-01-29T14:28:34.496Z,101522.16
2023-01-29T14:33:43.329Z,101510.22
2023-01-29T14:38:50.344Z,101503.03
2023-01-29T14:44:44.686Z,101507.84
2023-01-29T14:49:54.842Z,101495.16
2023-01-29T14:55:02.001Z,101500.63
2023-01-29T15:00:07.407Z,101484.84
2023-01-29T15:05:14.879Z,101496.56
2023-01-29T15:10:23.228Z,101496.31
2023-01-29T15:15:33.899Z,101499.81
2023-01-29T15:20:40.672Z,101493.38
2023-01-29T15:25:49.732Z,101508.34
2023-01-29T15:30:55.510Z,101483.28
2023-01-29T15:36:07.384Z,101477.81
2023-01-29T15:41:18.923Z,101469.66
2023-01-29T15:46:26.552Z,101466.19
2023-01-29T15:51:32.661Z,101466.16
2023-01-29T15:56:39.548Z,101451.41
2023-01-29T16:01:43.218Z,101451.31
2023-01-29T16:06:48.364Z,101460.44
2023-01-29T16:11:52.919Z,101446.34
2023-01-29T16:16:56.498Z,101444.13
2023-01-29T16:22:02.492Z,101422.66
2023-01-29T16:27:11.735Z,101431.69
2023-01-29T16:32:16.302Z,101423.91
2023-01-29T16:37:23.702Z,101423.88
2023-01-29T16:42:31.293Z,101411.50
2023-01-29T16:47:36.788Z,101405.72
2023-01-29T16:52:57.675Z,101383.69
2023-01-29T16:58:04.694Z,101386.13
2023-01-29T17:03:08.562Z,101368.28
2023-01-29T17:08:24.018Z,101365.25
2023-01-29T17:13:45.639Z,101348.03
2023-01-29T17:18:49.407Z,101351.28
2023-01-29T17:23:54.460Z,101352.44
2023-01-29T17:28:57.909Z,101349.78
2023-01-29T17:34:01.560Z,101351.59
2023-01-29T17:39:13.498Z,101346.81
2023-01-29T17:44:16.874Z,101351.22
2023-01-29T17:49:24.114Z,101345.72
2023-01-29T17:54:28.923Z,101323.31
2023-01-29T17:59:34.208Z,101310.94
2023-01-29T18:04:38.652Z,101307.50
2023-01-29T18:09:43.660Z,101303.28
2023-01-29T18:14:47.160Z,101297.25
2023-01-29T18:19:50.906Z,101287.19
2023-01-29T18:24:56.329Z,101282.81
2023-01-29T18:29:59.750Z,101272.63
2023-01-29T18:35:03.238Z,101265.22
2023-01-29T18:40:09.884Z,101248.94
2023-01-29T18:45:13.858Z,101256.47
2023-01-29T18:50:17.870Z,101256.81
2023-01-29T18:55:23.328Z,101255.84
2023-01-29T19:00:26.738Z,101240.78
2023-01-29T19:05:30.163Z,101241.56
2023-01-29T19:10:35.476Z,101233.47
2023-01-29T19:15:42.813Z,101206.03
2023-01-29T19:20:46.192Z,101194.63
2023-01-29T19:25:51.239Z,101185.06
2023-01-29T19:30:57.688Z,101166.09
2023-01-29T19:36:01.644Z,101145.72
2023-01-29T19:41:06.741Z,101133.50
2023-01-29T19:46:11.337Z,101114.50
2023-01-29T19:51:14.707Z,101131.34
2023-01-29T19:56:19.861Z,101114.25
2023-01-29T20:01:24.584Z,101111.69
2023-01-29T20:06:30.893Z,101102.69
2023-01-29T20:11:47.291Z,101080.97
2023-01-29T20:16:50.881Z,101058.88
2023-01-29T20:21:54.501Z,101061.25
2023-01-29T20:26:59.825Z,101057.34
2023-01-29T20:32:04.171Z,101043.41
2023-01-29T20:37:07.674Z,101038.81
2023-01-29T20:42:12.646Z,101032.44
2023-01-29T20:47:16.077Z,101014.25
2023-01-29T20:52:19.572Z,101021.59
2023-01-29T20:57:24.851Z,101002.78
2023-01-29T21:02:28.244Z,100992.09
2023-01-29T21:07:31.612Z,101003.09
2023-01-29T21:12:36.465Z,100997.25
2023-01-29T21:17:40.038Z,100987.88
2023-01-29T21:22:43.982Z,100993.47
2023-01-29T21:27:48.850Z,100996.59
2023-01-29T21:32:52.338Z,100992.41
2023-01-29T21:37:55.973Z,100978.44
2023-01-29T21:43:12.713Z,100967.66
2023-01-29T21:48:16.124Z,100960.66
2023-01-29T21:53:19.890Z,100964.69
2023-01-29T21:58:24.793Z,100946.22
2023-01-29T22:03:28.331Z,100949.88
2023-01-29T22:08:32.011Z,100940.75
2023-01-29T22:13:36.931Z,100931.19
2023-01-29T22:18:40.301Z,100923.72
2023-01-29T22:23:43.685Z,100928.84
2023-01-29T22:28:48.451Z,100923.84
2023-01-29T22:33:53.214Z,100923.41
2023-01-29T22:38:56.531Z,100907.69
2023-01-29T22:44:01.324Z,100910.34
2023-01-29T22:49:04.696Z,100892.44
2023-01-29T22:54:08.147Z,100895.19
2023-01-29T22:59:12.917Z,100909.19
2023-01-29T23:04:16.488Z,100885.38
2023-01-29T23:09:19.865Z,100862.13
2023-01-29T23:14:24.712Z,100838.41
2023-01-29T23:19:29.957Z,100811.81
2023-01-29T23:24:33.359Z,100776.59
2023-01-29T23:29:38.175Z,100719.63
2023-01-29T23:34:41.538Z,100732.22
2023-01-29T23:39:44.923Z,100747.03
2023-01-29T23:44:49.820Z,100742.53
2023-01-29T23:49:53.517Z,100729.41
2023-01-29T23:54:56.856Z,100698.28
